sensor_id;sensor_type;location;lat;lon;timestamp;P1;durP1;ratioP1;P2;durP2;ratioP2
35675;SDS011;21790;42.668;23.298;2023-03-01T07:03:35;8.30;;;3.22;;
35675;SDS011;21790;42.668;23.298;2023-03-01T07:06:00;5.63;;;3.05;;
35675;SDS011;21790;42.668;23.298;2023-03-01T07:11:48;3.95;;;2.90;;
35675;SDS011;21790;42.668;23.298;2023-03-01T07:14:14;8.38;;;3.08;;
35675;SDS011;21790;42.668;23.298;2023-03-01T07:26:37;5.93;;;2.90;;
35675;SDS011;21790;42.668;23.298;2023-03-01T07:38:29;3.55;;;2.65;;
35675;SDS011;21790;42.668;23.298;2023-03-01T07:47:09;3.00;;;2.70;;
35675;SDS011;21790;42.668;23.298;2023-03-01T07:59:38;4.57;;;2.65;;
35675;SDS011;21790;42.668;23.298;2023-03-01T08:12:04;6.75;;;3.60;;
35675;SDS011;21790;42.668;23.298;2023-03-01T08:46:36;6.53;;;4.63;;
35675;SDS011;21790;42.668;23.298;2023-03-01T09:11:03;7.38;;;3.60;;
35675;SDS011;21790;42.668;23.298;2023-03-01T09:13:31;6.70;;;3.78;;
35675;SDS011;21790;42.668;23.298;2023-03-01T09:15:58;5.78;;;3.40;;
35675;SDS011;21790;42.668;23.298;2023-03-01T09:18:24;6.95;;;3.97;;
35675;SDS011;21790;42.668;23.298;2023-03-01T09:20:49;8.27;;;3.80;;
35675;SDS011;21790;42.668;23.298;2023-03-01T09:23:15;24.17;;;12.77;;
35675;SDS011;21790;42.668;23.298;2023-03-01T09:25:40;26.77;;;15.80;;
35675;SDS011;21790;42.668;23.298;2023-03-01T09:28:06;12.93;;;8.27;;
35675;SDS011;21790;42.668;23.298;2023-03-01T09:30:32;4.93;;;3.53;;
35675;SDS011;21790;42.668;23.298;2023-03-01T09:32:58;4.90;;;3.47;;
35675;SDS011;21790;42.668;23.298;2023-03-01T09:35:23;8.68;;;3.40;;
35675;SDS011;21790;42.668;23.298;2023-03-01T09:37:49;4.25;;;3.08;;
35675;SDS011;21790;42.668;23.298;2023-03-01T09:40:17;5.43;;;3.55;;
35675;SDS011;21790;42.668;23.298;2023-03-01T09:48:10;3.80;;;2.80;;
35675;SDS011;21790;42.668;23.298;2023-03-01T09:50:41;5.90;;;3.88;;
35675;SDS011;21790;42.668;23.298;2023-03-01T09:53:15;7.63;;;2.70;;
35675;SDS011;21790;42.668;23.298;2023-03-01T09:55:44;2.13;;;1.92;;
35675;SDS011;21790;42.668;23.298;2023-03-01T10:01:26;10.70;;;2.15;;
35675;SDS011;21790;42.668;23.298;2023-03-01T10:09:49;2.70;;;2.17;;
35675;SDS011;21790;42.668;23.298;2023-03-01T10:17:41;7.10;;;2.90;;
35675;SDS011;21790;42.668;23.298;2023-03-01T10:20:22;3.78;;;2.10;;
35675;SDS011;21790;42.668;23.298;2023-03-01T10:22:52;2.90;;;2.40;;
35675;SDS011;21790;42.668;23.298;2023-03-01T10:31:44;4.80;;;3.22;;
35675;SDS011;21790;42.668;23.298;2023-03-01T10:34:16;12.35;;;3.65;;
35675;SDS011;21790;42.668;23.298;2023-03-01T10:36:44;6.38;;;2.80;;
35675;SDS011;21790;42.668;23.298;2023-03-01T10:39:17;3.20;;;2.90;;
35675;SDS011;21790;42.668;23.298;2023-03-01T10:42:18;5.72;;;3.55;;
35675;SDS011;21790;42.668;23.298;2023-03-01T10:44:47;6.78;;;3.42;;
35675;SDS011;21790;42.668;23.298;2023-03-01T10:47:24;16.15;;;3.40;;
35675;SDS011;21790;42.668;23.298;2023-03-01T10:49:53;4.57;;;2.80;;
35675;SDS011;21790;42.668;23.298;2023-03-01T10:52:20;4.28;;;3.00;;
35675;SDS011;21790;42.668;23.298;2023-03-01T10:54:52;3.45;;;3.15;;
35675;SDS011;21790;42.668;23.298;2023-03-01T10:57:28;5.80;;;3.33;;
35675;SDS011;21790;42.668;23.298;2023-03-01T11:00:02;9.02;;;5.38;;
35675;SDS011;21790;42.668;23.298;2023-03-01T11:02:42;8.02;;;4.05;;
35675;SDS011;21790;42.668;23.298;2023-03-01T11:10:18;7.25;;;4.15;;
35675;SDS011;21790;42.668;23.298;2023-03-01T11:12:45;6.78;;;3.80;;
35675;SDS011;21790;42.668;23.298;2023-03-01T11:18:05;5.85;;;3.72;;
35675;SDS011;21790;42.668;23.298;2023-03-01T11:20:45;7.20;;;2.90;;
35675;SDS011;21790;42.668;23.298;2023-03-01T11:23:14;4.13;;;3.33;;
35675;SDS011;21790;42.668;23.298;2023-03-01T11:25:48;6.18;;;3.15;;
35675;SDS011;21790;42.668;23.298;2023-03-01T11:28:25;6.32;;;3.78;;
35675;SDS011;21790;42.668;23.298;2023-03-01T11:33:34;11.40;;;4.10;;
35675;SDS011;21790;42.668;23.298;2023-03-01T11:38:51;5.18;;;3.70;;
35675;SDS011;21790;42.668;23.298;2023-03-01T11:41:26;4.63;;;3.92;;
35675;SDS011;21790;42.668;23.298;2023-03-01T12:10:01;7.70;;;4.75;;
35675;SDS011;21790;42.668;23.298;2023-03-01T12:18:38;4.75;;;4.22;;
35675;SDS011;21790;42.668;23.298;2023-03-01T12:40:33;7.80;;;4.90;;
35675;SDS011;21790;42.668;23.298;2023-03-01T12:46:21;4.95;;;3.72;;
35675;SDS011;21790;42.668;23.298;2023-03-01T12:49:20;7.80;;;4.28;;
35675;SDS011;21790;42.668;23.298;2023-03-01T12:54:52;12.63;;;4.82;;
35675;SDS011;21790;42.668;23.298;2023-03-01T13:05:24;7.78;;;4.97;;
35675;SDS011;21790;42.668;23.298;2023-03-01T13:11:11;5.88;;;4.25;;
35675;SDS011;21790;42.668;23.298;2023-03-01T13:13:41;7.45;;;4.68;;
35675;SDS011;21790;42.668;23.298;2023-03-01T13:17:20;6.47;;;4.18;;
35675;SDS011;21790;42.668;23.298;2023-03-01T13:19:06;5.90;;;4.18;;
35675;SDS011;21790;42.668;23.298;2023-03-01T13:24:50;6.45;;;4.18;;
35675;SDS011;21790;42.668;23.298;2023-03-01T13:27:28;6.70;;;4.07;;
35675;SDS011;21790;42.668;23.298;2023-03-01T13:29:55;4.40;;;3.78;;
35675;SDS011;21790;42.668;23.298;2023-03-01T13:32:35;14.30;;;5.82;;
35675;SDS011;21790;42.668;23.298;2023-03-01T13:41:50;5.97;;;4.18;;
35675;SDS011;21790;42.668;23.298;2023-03-01T13:50:27;9.00;;;4.60;;
35675;SDS011;21790;42.668;23.298;2023-03-01T13:53:10;6.68;;;4.97;;
35675;SDS011;21790;42.668;23.298;2023-03-01T13:58:26;7.80;;;4.78;;
35675;SDS011;21790;42.668;23.298;2023-03-01T14:20:52;9.02;;;4.30;;
35675;SDS011;21790;42.668;23.298;2023-03-01T14:25:59;5.90;;;4.20;;
35675;SDS011;21790;42.668;23.298;2023-03-01T14:28:27;9.02;;;4.35;;
35675;SDS011;21790;42.668;23.298;2023-03-01T14:31:29;5.72;;;4.35;;
35675;SDS011;21790;42.668;23.298;2023-03-01T14:34:36;6.28;;;4.80;;
35675;SDS011;21790;42.668;23.298;2023-03-01T14:37:26;8.57;;;4.75;;
35675;SDS011;21790;42.668;23.298;2023-03-01T14:52:38;6.88;;;4.05;;
35675;SDS011;21790;42.668;23.298;2023-03-01T14:55:17;7.25;;;4.25;;
35675;SDS011;21790;42.668;23.298;2023-03-01T14:58:29;5.88;;;3.65;;
35675;SDS011;21790;42.668;23.298;2023-03-01T15:00:59;5.95;;;3.42;;
35675;SDS011;21790;42.668;23.298;2023-03-01T15:03:31;6.68;;;3.70;;
35675;SDS011;21790;42.668;23.298;2023-03-01T15:09:26;7.68;;;3.47;;
35675;SDS011;21790;42.668;23.298;2023-03-01T15:11:54;4.90;;;3.03;;
35675;SDS011;21790;42.668;23.298;2023-03-01T15:20:34;8.55;;;3.70;;
35675;SDS011;21790;42.668;23.298;2023-03-01T15:23:01;7.63;;;3.65;;
35675;SDS011;21790;42.668;23.298;2023-03-01T15:25:35;9.30;;;4.57;;
35675;SDS011;21790;42.668;23.298;2023-03-01T15:28:12;8.07;;;4.03;;
35675;SDS011;21790;42.668;23.298;2023-03-01T15:30:44;7.03;;;4.72;;
35675;SDS011;21790;42.668;23.298;2023-03-01T15:39:26;6.80;;;4.22;;
35675;SDS011;21790;42.668;23.298;2023-03-01T15:42:01;7.07;;;4.63;;
35675;SDS011;21790;42.668;23.298;2023-03-01T15:47:55;7.82;;;4.38;;
35675;SDS011;21790;42.668;23.298;2023-03-01T15:52:58;7.63;;;4.65;;
35675;SDS011;21790;42.668;23.298;2023-03-01T15:55:28;6.53;;;4.38;;
35675;SDS011;21790;42.668;23.298;2023-03-01T15:58:03;10.02;;;4.40;;
35675;SDS011;21790;42.668;23.298;2023-03-01T16:00:34;6.13;;;4.18;;
35675;SDS011;21790;42.668;23.298;2023-03-01T16:03:01;7.10;;;4.38;;
35675;SDS011;21790;42.668;23.298;2023-03-01T16:05:30;6.47;;;4.28;;
35675;SDS011;21790;42.668;23.298;2023-03-01T16:13:14;7.55;;;5.00;;
35675;SDS011;21790;42.668;23.298;2023-03-01T16:15:56;5.65;;;3.83;;
35675;SDS011;21790;42.668;23.298;2023-03-01T16:18:27;7.25;;;3.90;;
35675;SDS011;21790;42.668;23.298;2023-03-01T16:27:07;11.70;;;3.67;;
35675;SDS011;21790;42.668;23.298;2023-03-01T16:29:34;8.70;;;4.47;;
35675;SDS011;21790;42.668;23.298;2023-03-01T16:37:03;7.43;;;3.80;;
35675;SDS011;21790;42.668;23.298;2023-03-01T16:39:32;5.25;;;3.40;;
35675;SDS011;21790;42.668;23.298;2023-03-01T16:42:00;8.63;;;4.78;;
35675;SDS011;21790;42.668;23.298;2023-03-01T16:44:26;8.27;;;4.25;;
35675;SDS011;21790;42.668;23.298;2023-03-01T16:46:53;7.47;;;4.30;;
35675;SDS011;21790;42.668;23.298;2023-03-01T16:49:21;10.18;;;4.85;;
35675;SDS011;21790;42.668;23.298;2023-03-01T16:51:47;8.23;;;4.38;;
35675;SDS011;21790;42.668;23.298;2023-03-01T16:54:13;6.95;;;4.30;;
35675;SDS011;21790;42.668;23.298;2023-03-01T16:56:41;7.78;;;4.70;;
35675;SDS011;21790;42.668;23.298;2023-03-01T16:59:07;7.97;;;4.15;;
35675;SDS011;21790;42.668;23.298;2023-03-01T17:01:34;15.38;;;7.60;;
35675;SDS011;21790;42.668;23.298;2023-03-01T17:04:05;6.68;;;4.32;;
35675;SDS011;21790;42.668;23.298;2023-03-01T17:12:55;11.45;;;4.45;;
35675;SDS011;21790;42.668;23.298;2023-03-01T17:18:17;6.10;;;3.63;;
35675;SDS011;21790;42.668;23.298;2023-03-01T17:20:43;10.15;;;4.05;;
35675;SDS011;21790;42.668;23.298;2023-03-01T17:23:10;9.55;;;3.75;;
35675;SDS011;21790;42.668;23.298;2023-03-01T17:25:53;6.75;;;3.88;;
35675;SDS011;21790;42.668;23.298;2023-03-01T17:34:38;8.90;;;3.95;;
35675;SDS011;21790;42.668;23.298;2023-03-01T17:37:04;6.97;;;3.65;;
35675;SDS011;21790;42.668;23.298;2023-03-01T17:39:29;10.80;;;4.45;;
35675;SDS011;21790;42.668;23.298;2023-03-01T17:42:02;6.07;;;3.70;;
35675;SDS011;21790;42.668;23.298;2023-03-01T17:44:30;8.23;;;4.45;;
35675;SDS011;21790;42.668;23.298;2023-03-01T17:46:58;8.07;;;4.13;;
35675;SDS011;21790;42.668;23.298;2023-03-01T17:49:24;9.55;;;4.38;;
35675;SDS011;21790;42.668;23.298;2023-03-01T17:51:50;7.85;;;4.57;;
35675;SDS011;21790;42.668;23.298;2023-03-01T17:54:15;13.45;;;5.63;;
35675;SDS011;21790;42.668;23.298;2023-03-01T17:56:44;8.80;;;5.38;;
35675;SDS011;21790;42.668;23.298;2023-03-01T17:59:10;13.48;;;5.53;;
35675;SDS011;21790;42.668;23.298;2023-03-01T18:01:36;16.48;;;6.50;;
35675;SDS011;21790;42.668;23.298;2023-03-01T18:04:01;10.50;;;5.60;;
35675;SDS011;21790;42.668;23.298;2023-03-01T18:06:27;8.50;;;5.50;;
35675;SDS011;21790;42.668;23.298;2023-03-01T18:09:10;10.13;;;5.90;;
35675;SDS011;21790;42.668;23.298;2023-03-01T18:11:36;9.27;;;5.95;;
35675;SDS011;21790;42.668;23.298;2023-03-01T18:14:03;10.18;;;6.20;;
35675;SDS011;21790;42.668;23.298;2023-03-01T18:19:50;11.88;;;7.15;;
35675;SDS011;21790;42.668;23.298;2023-03-01T18:25:38;13.05;;;7.15;;
35675;SDS011;21790;42.668;23.298;2023-03-01T18:33:39;10.60;;;7.05;;
35675;SDS011;21790;42.668;23.298;2023-03-01T18:42:45;11.20;;;7.18;;
35675;SDS011;21790;42.668;23.298;2023-03-01T18:48:32;24.17;;;14.85;;
35675;SDS011;21790;42.668;23.298;2023-03-01T18:51:05;11.35;;;6.95;;
35675;SDS011;21790;42.668;23.298;2023-03-01T18:57:01;10.98;;;7.00;;
35675;SDS011;21790;42.668;23.298;2023-03-01T19:06:14;15.20;;;9.32;;
35675;SDS011;21790;42.668;23.298;2023-03-01T19:12:05;9.60;;;6.45;;
35675;SDS011;21790;42.668;23.298;2023-03-01T19:17:53;13.02;;;7.53;;
35675;SDS011;21790;42.668;23.298;2023-03-01T19:52:19;15.02;;;8.85;;
35675;SDS011;21790;42.668;23.298;2023-03-01T20:04:06;15.82;;;9.45;;
35675;SDS011;21790;42.668;23.298;2023-03-01T20:12:59;16.67;;;8.30;;
35675;SDS011;21790;42.668;23.298;2023-03-01T20:15:33;13.27;;;8.25;;
35675;SDS011;21790;42.668;23.298;2023-03-01T20:17:59;13.38;;;8.25;;
35675;SDS011;21790;42.668;23.298;2023-03-01T20:20:24;13.48;;;8.07;;
35675;SDS011;21790;42.668;23.298;2023-03-01T20:22:50;13.68;;;8.52;;
35675;SDS011;21790;42.668;23.298;2023-03-01T20:25:19;21.50;;;9.30;;
35675;SDS011;21790;42.668;23.298;2023-03-01T20:27:46;13.48;;;7.28;;
35675;SDS011;21790;42.668;23.298;2023-03-01T20:36:49;14.55;;;9.13;;
35675;SDS011;21790;42.668;23.298;2023-03-01T20:45:31;15.73;;;9.38;;
35675;SDS011;21790;42.668;23.298;2023-03-01T20:51:21;37.20;;;15.07;;
35675;SDS011;21790;42.668;23.298;2023-03-01T20:59:18;16.60;;;8.77;;
35675;SDS011;21790;42.668;23.298;2023-03-01T21:01:46;17.48;;;9.15;;
35675;SDS011;21790;42.668;23.298;2023-03-01T21:04:13;16.92;;;9.35;;
35675;SDS011;21790;42.668;23.298;2023-03-01T21:06:43;18.80;;;10.25;;
35675;SDS011;21790;42.668;23.298;2023-03-01T21:11:55;18.85;;;10.38;;
35675;SDS011;21790;42.668;23.298;2023-03-01T21:14:21;24.38;;;12.82;;
35675;SDS011;21790;42.668;23.298;2023-03-01T21:16:48;20.45;;;10.68;;
35675;SDS011;21790;42.668;23.298;2023-03-01T21:19:14;20.77;;;11.43;;
35675;SDS011;21790;42.668;23.298;2023-03-01T21:21:40;16.60;;;9.73;;
35675;SDS011;21790;42.668;23.298;2023-03-01T21:24:08;16.77;;;9.48;;
35675;SDS011;21790;42.668;23.298;2023-03-01T21:26:36;20.52;;;10.23;;
35675;SDS011;21790;42.668;23.298;2023-03-01T21:29:14;25.17;;;13.15;;
35675;SDS011;21790;42.668;23.298;2023-03-01T21:31:40;17.50;;;10.05;;
35675;SDS011;21790;42.668;23.298;2023-03-01T21:34:05;26.98;;;12.90;;
35675;SDS011;21790;42.668;23.298;2023-03-01T21:36:33;17.25;;;10.15;;
35675;SDS011;21790;42.668;23.298;2023-03-01T21:39:01;26.83;;;12.38;;
35675;SDS011;21790;42.668;23.298;2023-03-01T21:41:39;19.40;;;10.75;;
35675;SDS011;21790;42.668;23.298;2023-03-01T21:44:05;26.52;;;12.30;;
35675;SDS011;21790;42.668;23.298;2023-03-01T21:46:32;19.25;;;10.45;;
35675;SDS011;21790;42.668;23.298;2023-03-01T21:49:00;21.38;;;10.98;;
35675;SDS011;21790;42.668;23.298;2023-03-01T21:51:28;20.42;;;10.70;;
35675;SDS011;21790;42.668;23.298;2023-03-01T21:53:55;16.17;;;9.88;;
35675;SDS011;21790;42.668;23.298;2023-03-01T21:56:35;19.60;;;9.30;;
35675;SDS011;21790;42.668;23.298;2023-03-01T21:59:08;16.92;;;10.07;;
35675;SDS011;21790;42.668;23.298;2023-03-01T22:01:38;17.15;;;9.23;;
35675;SDS011;21790;42.668;23.298;2023-03-01T22:06:44;18.23;;;9.82;;
35675;SDS011;21790;42.668;23.298;2023-03-01T22:11:45;15.55;;;8.82;;
35675;SDS011;21790;42.668;23.298;2023-03-01T22:14:21;16.40;;;9.48;;
35675;SDS011;21790;42.668;23.298;2023-03-01T22:17:03;15.57;;;8.85;;
35675;SDS011;21790;42.668;23.298;2023-03-01T22:22:50;13.30;;;7.63;;
35675;SDS011;21790;42.668;23.298;2023-03-01T22:25:30;12.27;;;8.00;;
35675;SDS011;21790;42.668;23.298;2023-03-01T22:27:56;12.38;;;7.25;;
35675;SDS011;21790;42.668;23.298;2023-03-01T22:30:21;11.32;;;7.00;;
35675;SDS011;21790;42.668;23.298;2023-03-01T22:32:47;14.48;;;8.02;;
35675;SDS011;21790;42.668;23.298;2023-03-01T22:35:16;12.00;;;7.38;;
35675;SDS011;21790;42.668;23.298;2023-03-01T22:37:41;10.30;;;6.82;;
35675;SDS011;21790;42.668;23.298;2023-03-01T22:40:07;10.82;;;5.80;;
35675;SDS011;21790;42.668;23.298;2023-03-01T22:42:34;8.68;;;5.35;;
35675;SDS011;21790;42.668;23.298;2023-03-01T22:44:59;10.57;;;5.93;;
35675;SDS011;21790;42.668;23.298;2023-03-01T22:47:25;11.32;;;6.50;;
35675;SDS011;21790;42.668;23.298;2023-03-01T22:55:00;9.48;;;5.20;;
35675;SDS011;21790;42.668;23.298;2023-03-01T22:57:26;7.80;;;5.07;;
35675;SDS011;21790;42.668;23.298;2023-03-01T22:59:51;7.40;;;5.55;;
35675;SDS011;21790;42.668;23.298;2023-03-01T23:02:17;8.25;;;5.25;;
35675;SDS011;21790;42.668;23.298;2023-03-01T23:04:43;6.95;;;4.90;;
35675;SDS011;21790;42.668;23.298;2023-03-01T23:07:12;9.68;;;6.10;;
35675;SDS011;21790;42.668;23.298;2023-03-01T23:09:38;7.38;;;5.18;;
35675;SDS011;21790;42.668;23.298;2023-03-01T23:17:27;7.18;;;4.85;;
35675;SDS011;21790;42.668;23.298;2023-03-01T23:19:52;7.18;;;4.78;;
35675;SDS011;21790;42.668;23.298;2023-03-01T23:25:00;7.28;;;4.38;;
35675;SDS011;21790;42.668;23.298;2023-03-01T23:30:25;9.50;;;5.18;;
35675;SDS011;21790;42.668;23.298;2023-03-01T23:32:51;7.03;;;4.70;;
35675;SDS011;21790;42.668;23.298;2023-03-01T23:35:20;6.78;;;4.40;;
35675;SDS011;21790;42.668;23.298;2023-03-01T23:37:46;6.22;;;4.75;;
35675;SDS011;21790;42.668;23.298;2023-03-01T23:40:11;8.50;;;5.53;;
35675;SDS011;21790;42.668;23.298;2023-03-01T23:42:38;7.03;;;4.95;;
35675;SDS011;21790;42.668;23.298;2023-03-01T23:45:04;9.05;;;5.70;;
35675;SDS011;21790;42.668;23.298;2023-03-01T23:50:02;7.07;;;4.75;;
35675;SDS011;21790;42.668;23.298;2023-03-01T23:52:30;7.25;;;4.85;;
35675;SDS011;21790;42.668;23.298;2023-03-01T23:55:02;6.60;;;4.63;;
35675;SDS011;21790;42.668;23.298;2023-03-01T23:57:28;5.93;;;4.03;;
35675;SDS011;21790;42.668;23.298;2023-03-01T23:59:53;8.73;;;4.57;;
